Time;durP1;ratioP1;P1;durP2;ratioP2;P2;SDS_P1;SDS_P2;PMS_P1;PMS_P2;Temp;Humidity;BMP_temperature;BMP_pressure;BME280_temperature;BME280_humidity;BME280_pressure;Samples;Min_cycle;Max_cycle;Signal;HPM_P1;HPM_P2
2022/09/23 00:01:01;;;;;;;2.97;2.60;;;;;;;9.95;60.63;96948.78;6210919;23;20033;-80
2022/09/23 00:03:30;;;;;;;4.85;4.30;;;;;;;9.93;60.68;96946.38;6200358;23;20040;-80
2022/09/23 00:06:00;;;;;;;4.30;3.58;;;;;;;9.94;62.05;96947.19;6200536;23;20017;-81
2022/09/23 00:08:28;;;;;;;5.65;3.70;;;;;;;9.95;60.96;96939.19;6203937;23;20079;-81
2022/09/23 00:11:05;;;;;;;3.90;3.10;;;;;;;9.96;60.63;96950.44;6202680;23;20025;-80
2022/09/23 00:13:33;;;;;;;5.57;3.00;;;;;;;9.96;60.36;96942.63;6202624;23;20025;-80
2022/09/23 00:16:03;;;;;;;4.30;3.15;;;;;;;9.94;60.46;96947.19;6206139;23;20014;-83
2022/09/23 00:18:32;;;;;;;3.28;2.97;;;;;;;9.92;60.03;96941.31;6204516;23;20017;-84
2022/09/23 00:21:03;;;;;;;3.58;2.90;;;;;;;9.87;60.02;96942.63;6203588;23;20028;-83
2022/09/23 00:23:31;;;;;;;3.30;3.00;;;;;;;9.83;60.16;96938.75;6202374;23;20052;-83
2022/09/23 00:26:05;;;;;;;5.03;3.53;;;;;;;9.85;60.58;96949.00;6205259;23;20024;-84
2022/09/23 00:28:34;;;;;;;5.50;3.40;;;;;;;9.84;60.39;96943.00;6205643;23;20029;-83
2022/09/23 00:31:02;;;;;;;3.45;2.90;;;;;;;9.83;60.20;96938.75;6203053;23;20024;-83
2022/09/23 00:33:30;;;;;;;3.50;2.90;;;;;;;9.82;59.99;96931.91;6200897;23;20017;-83
2022/09/23 00:35:59;;;;;;;4.00;3.20;;;;;;;9.84;60.95;96935.16;6203630;23;20017;-83
2022/09/23 00:38:28;;;;;;;6.55;3.95;;;;;;;9.88;61.32;96933.84;6203936;23;20016;-83
2022/09/23 00:40:57;;;;;;;4.35;3.70;;;;;;;9.93;61.04;96940.31;6203858;23;20021;-84
2022/09/23 00:43:40;;;;;;;4.20;3.40;;;;;;;9.93;60.99;96930.75;6202822;23;20048;-83
2022/09/23 00:46:09;;;;;;;2.92;2.70;;;;;;;9.96;62.60;96937.41;6204420;23;20032;-84
2022/09/23 00:48:41;;;;;;;5.32;4.45;;;;;;;9.97;61.51;96936.41;6203717;23;20506;-83
2022/09/23 00:51:12;;;;;;;3.47;2.95;;;;;;;10.02;64.32;96936.72;6202945;23;20021;-83
2022/09/23 00:53:41;;;;;;;5.35;3.47;;;;;;;10.05;62.82;96933.78;6202663;23;20036;-83
2022/09/23 00:56:11;;;;;;;3.25;2.95;;;;;;;10.07;61.56;96924.00;6205435;23;20013;-83
2022/09/23 00:58:44;;;;;;;4.80;3.20;;;;;;;10.03;60.86;96920.91;6207086;23;20458;-84
2022/09/23 01:01:13;;;;;;;3.47;3.15;;;;;;;9.98;60.52;96918.00;6204673;23;20029;-83
2022/09/23 01:03:44;;;;;;;6.72;3.15;;;;;;;9.96;60.39;96916.56;6205031;23;20021;-84
2022/09/23 01:06:13;;;;;;;3.42;3.00;;;;;;;9.94;60.17;96927.13;6206337;23;20024;-83
2022/09/23 01:08:43;;;;;;;3.83;3.20;;;;;;;9.94;60.06;96916.72;6205448;23;20017;-83
2022/09/23 01:11:24;;;;;;;3.08;2.78;;;;;;;9.96;61.01;96925.19;6203616;23;20036;-83
2022/09/23 01:14:01;;;;;;;3.35;2.88;;;;;;;10.00;60.68;96913.44;6204081;23;20012;-83
2022/09/23 01:16:38;;;;;;;5.85;3.25;;;;;;;10.03;60.00;96914.88;6205421;23;20021;-83
2022/09/23 01:19:24;;;;;;;5.10;3.88;;;;;;;10.03;60.03;96909.66;6206425;23;20025;-83
2022/09/23 01:22:00;;;;;;;2.97;2.78;;;;;;;10.02;59.51;96902.84;6203371;23;20021;-83
2022/09/23 01:25:10;;;;;;;4.78;3.10;;;;;;;10.03;59.72;96900.06;6206678;23;20017;-83
2022/09/23 01:27:56;;;;;;;3.65;2.97;;;;;;;10.02;59.23;96902.84;6205753;23;20016;-83
2022/09/23 01:30:43;;;;;;;3.78;3.42;;;;;;;9.99;59.27;96896.19;6204102;23;20081;-83
2022/09/23 01:33:17;;;;;;;3.97;2.90;;;;;;;9.96;59.08;96901.72;6205487;23;20021;-84
2022/09/23 01:36:06;;;;;;;3.60;2.95;;;;;;;9.96;59.17;96904.31;6205987;23;20028;-83
2022/09/23 01:38:44;;;;;;;5.53;3.25;;;;;;;9.94;59.06;96900.28;6202739;23;20037;-84
2022/09/23 01:41:23;;;;;;;4.85;4.30;;;;;;;9.91;59.05;96906.66;6205088;23;20032;-83
2022/09/23 01:43:58;;;;;;;4.18;3.42;;;;;;;9.90;59.34;96905.00;6206567;23;20017;-83
2022/09/23 01:46:32;;;;;;;4.68;3.22;;;;;;;9.89;59.02;96903.41;6212694;23;20032;-83
2022/09/23 01:49:07;;;;;;;4.22;3.38;;;;;;;9.88;59.10;96896.53;6178531;23;20327;-78
2022/09/23 01:51:38;;;;;;;3.78;3.40;;;;;;;9.86;59.22;96893.28;6155068;23;20032;-78
2022/09/23 01:54:13;;;;;;;3.63;3.33;;;;;;;9.84;59.13;96890.88;6156322;23;20066;-78
2022/09/23 01:56:47;;;;;;;4.13;3.55;;;;;;;9.83;59.20;96894.44;6155874;23;20021;-78
2022/09/23 01:59:20;;;;;;;4.38;3.50;;;;;;;9.81;59.06;96891.19;6155415;23;20028;-78
2022/09/23 02:01:56;;;;;;;3.88;3.22;;;;;;;9.77;59.13;96889.09;6155094;23;20398;-78
2022/09/23 02:04:30;;;;;;;6.95;3.40;;;;;;;9.74;59.53;96889.47;6155977;23;20021;-78
2022/09/23 02:07:01;;;;;;;7.28;3.20;;;;;;;9.70;59.52;96894.19;6155414;23;20028;-78
2022/09/23 02:09:36;;;;;;;4.80;3.38;;;;;;;9.65;59.70;96881.66;6155697;23;20018;-78
2022/09/23 02:12:08;;;;;;;7.63;3.90;;;;;;;9.62;59.56;96894.19;6154702;23;20078;-78
2022/09/23 02:14:41;;;;;;;4.47;3.50;;;;;;;9.60;59.97;96894.38;6155891;23;20064;-78
2022/09/23 02:17:15;;;;;;;4.70;3.50;;;;;;;9.59;59.76;96892.75;6155550;23;20021;-78
2022/09/23 02:19:47;;;;;;;4.18;3.78;;;;;;;9.60;60.06;96888.34;6155519;23;20488;-78
2022/09/23 02:22:19;;;;;;;3.40;3.10;;;;;;;9.63;59.88;96898.44;6154976;23;20029;-78
2022/09/23 02:24:46;;;;;;;4.10;3.65;;;;;;;9.64;59.76;96894.84;6155290;23;20029;-78
2022/09/23 02:27:24;;;;;;;3.90;3.60;;;;;;;9.65;60.25;96896.50;6155594;23;20088;-78
2022/09/23 02:29:57;;;;;;;4.78;3.33;;;;;;;9.67;59.92;96894.53;6168016;23;20026;-78
2022/09/23 02:32:35;;;;;;;3.65;3.35;;;;;;;9.71;60.11;96895.81;6173563;23;20096;-78
2022/09/23 02:35:12;;;;;;;5.55;3.53;;;;;;;9.74;60.24;96881.63;6156232;23;20516;-78
2022/09/23 02:37:46;;;;;;;5.68;3.60;;;;;;;9.76;60.25;96888.31;6155635;23;20022;-78
2022/09/23 02:40:21;;;;;;;4.05;3.65;;;;;;;9.76;59.74;96882.28;6154729;23;20108;-78
2022/09/23 02:42:59;;;;;;;4.57;4.03;;;;;;;9.72;59.66;96881.00;6155123;23;20453;-78
2022/09/23 02:45:26;;;;;;;4.57;3.55;;;;;;;9.70;59.75;96879.34;6155175;23;20105;-78
2022/09/23 02:48:01;;;;;;;5.75;3.88;;;;;;;9.70;60.05;96883.75;6155255;23;20101;-78
2022/09/23 02:50:29;;;;;;;6.03;3.88;;;;;;;9.68;59.50;96883.13;6154254;23;20472;-78
2022/09/23 02:52:58;;;;;;;5.55;4.03;;;;;;;9.64;59.81;96880.06;6155555;23;20265;-78
2022/09/23 02:55:30;;;;;;;6.57;4.18;;;;;;;9.62;60.03;96876.81;6155314;23;20199;-78
2022/09/23 02:57:59;;;;;;;4.07;3.50;;;;;;;9.61;59.81;96876.97;6155351;23;20056;-77
2022/09/23 03:00:39;;;;;;;4.10;3.70;;;;;;;9.57;60.23;96870.47;6154493;23;20021;-78
2022/09/23 03:03:22;;;;;;;4.13;3.63;;;;;;;9.54;60.37;96865.59;6155458;23;20055;-78
2022/09/23 03:05:54;;;;;;;4.10;3.70;;;;;;;9.49;60.04;96872.13;6155295;23;20021;-78
2022/09/23 03:08:35;;;;;;;4.63;3.85;;;;;;;9.44;60.55;96858.78;6155407;23;20100;-78
2022/09/23 03:11:07;;;;;;;4.22;3.70;;;;;;;9.44;60.29;96864.00;6154248;23;20356;-78
2022/09/23 03:13:49;;;;;;;4.15;3.75;;;;;;;9.42;60.57;96863.38;6154822;23;20018;-78
2022/09/23 03:16:28;;;;;;;5.43;3.92;;;;;;;9.38;60.52;96859.47;6155163;23;20026;-78
2022/09/23 03:19:11;;;;;;;4.40;3.90;;;;;;;9.39;60.84;96858.47;6155170;23;20025;-78
2022/09/23 03:21:44;;;;;;;4.05;3.60;;;;;;;9.37;60.91;96863.03;6154231;23;20032;-78
2022/09/23 03:24:13;;;;;;;;;;;;;;;9.39;60.92;96862.88;6155467;23;20025;-78
2022/09/23 03:26:46;;;;;;;4.93;3.70;;;;;;;9.38;60.48;96859.47;6155528;23;20002;-78
2022/09/23 03:29:14;;;;;;;;;;;;;;;9.38;60.43;96859.47;6155414;23;20104;-78
2022/09/23 03:31:43;;;;;;;5.15;3.95;;;;;;;9.34;60.49;96852.97;6154067;23;19923;-78
2022/09/23 03:34:16;;;;;;;4.50;3.88;;;;;;;9.35;61.02;96862.41;6154094;23;20021;-78
2022/09/23 03:36:50;;;;;;;4.60;4.15;;;;;;;9.34;60.87;96852.97;6152482;23;20017;-78
2022/09/23 03:39:28;;;;;;;4.68;4.13;;;;;;;9.32;61.06;96852.31;6153828;23;20484;-78
2022/09/23 03:41:58;;;;;;;5.47;4.35;;;;;;;9.32;60.97;96849.72;6153651;23;20028;-78
2022/09/23 03:44:27;;;;;;;4.32;3.92;;;;;;;9.31;60.85;96845.47;6154864;23;20048;-78
2022/09/23 03:46:58;;;;;;;5.47;4.80;;;;;;;9.30;61.22;96848.28;6154364;23;20018;-78
2022/09/23 03:49:32;;;;;;;4.70;4.05;;;;;;;9.27;61.19;96841.59;6154655;23;20025;-78
2022/09/23 03:52:00;;;;;;;4.75;3.90;;;;;;;9.26;60.80;96850.38;6154337;23;20022;-78
2022/09/23 03:54:29;;;;;;;6.18;4.45;;;;;;;9.27;61.13;96846.78;6154454;23;20021;-78
2022/09/23 03:56:57;;;;;;;5.05;4.32;;;;;;;9.27;60.80;96849.41;6154741;23;20040;-77
2022/09/23 03:59:25;;;;;;;4.18;3.78;;;;;;;9.29;60.96;96847.44;6154377;23;20116;-77
2022/09/23 04:01:53;;;;;;;8.20;4.30;;;;;;;9.29;60.62;96844.84;6154042;23;20028;-78
2022/09/23 04:04:21;;;;;;;4.50;4.10;;;;;;;9.28;60.87;96849.25;6154328;23;20489;-78
2022/09/23 04:06:49;;;;;;;5.07;4.57;;;;;;;9.26;61.16;96845.19;6154665;23;20021;-78
2022/09/23 04:09:17;;;;;;;4.32;3.92;;;;;;;9.24;60.90;96839.34;6154525;23;20021;-77
2022/09/23 04:11:45;;;;;;;5.05;4.55;;;;;;;9.21;60.94;96831.88;6153900;23;20113;-78
2022/09/23 04:14:12;;;;;;;6.47;5.00;;;;;;;9.21;61.18;96826.66;6155076;23;20022;-78
2022/09/23 04:16:40;;;;;;;5.18;4.65;;;;;;;9.20;61.01;96832.81;6154468;23;20465;-77
2022/09/23 04:19:08;;;;;;;6.43;4.28;;;;;;;9.20;61.46;96827.63;6154766;23;20021;-77
2022/09/23 04:21:38;;;;;;;5.20;4.70;;;;;;;9.18;61.14;96826.97;6153911;23;20029;-78
2022/09/23 04:24:07;;;;;;;5.70;3.90;;;;;;;9.18;61.93;96819.16;6154029;23;20029;-77
2022/09/23 04:26:36;;;;;;;5.35;4.85;;;;;;;9.18;61.20;96822.59;6155240;23;20032;-77
2022/09/23 04:29:04;;;;;;;6.38;4.95;;;;;;;9.15;61.18;96817.72;6154835;23;20018;-77
2022/09/23 04:31:33;;;;;;;6.35;4.88;;;;;;;9.13;61.52;96816.25;6152810;23;20462;-76
2022/09/23 04:34:00;;;;;;;6.43;4.70;;;;;;;9.07;61.42;96821.16;6156676;23;20022;-77
2022/09/23 04:36:29;;;;;;;5.85;4.40;;;;;;;9.04;61.36;96821.50;6156733;23;20029;-76
2022/09/23 04:38:56;;;;;;;5.45;4.38;;;;;;;8.99;61.42;96818.59;6156177;23;20076;-76
2022/09/23 04:41:26;;;;;;;5.07;4.57;;;;;;;8.97;61.82;96817.94;6155494;23;20096;-76
2022/09/23 04:43:56;;;;;;;5.43;4.30;;;;;;;8.98;61.63;96818.75;6156019;23;20031;-76
2022/09/23 04:46:24;;;;;;;5.10;4.60;;;;;;;8.96;61.97;96818.91;6155993;23;20481;-77
2022/09/23 04:48:51;;;;;;;4.82;4.28;;;;;;;8.96;61.95;96818.91;6155422;23;20021;-77
2022/09/23 04:51:33;;;;;;;8.85;6.47;;;;;;;8.98;61.92;96823.94;6152585;23;20025;-76
2022/09/23 04:54:01;;;;;;;10.52;8.45;;;;;;;8.96;62.02;96829.31;6157545;23;20104;-79
2022/09/23 04:56:32;;;;;;;6.45;5.30;;;;;;;8.95;62.12;96830.28;6169512;23;20092;-78
2022/09/23 04:59:00;;;;;;;5.78;5.13;;;;;;;8.93;61.63;96829.66;6158911;23;20044;-78
2022/09/23 05:01:30;;;;;;;6.70;5.28;;;;;;;8.91;62.15;96829.00;6156885;23;20500;-77
2022/09/23 05:04:07;;;;;;;6.18;4.90;;;;;;;8.90;62.39;96831.75;6157499;23;20109;-80
2022/09/23 05:06:36;;;;;;;8.02;4.90;;;;;;;8.89;62.10;96833.56;6154749;23;20025;-78
2022/09/23 05:09:05;;;;;;;8.00;5.40;;;;;;;8.89;62.23;96836.16;6153839;23;20041;-79
2022/09/23 05:11:35;;;;;;;5.95;5.35;;;;;;;8.88;62.23;96837.13;6153789;23;20021;-79
2022/09/23 05:14:02;;;;;;;7.63;6.07;;;;;;;8.88;62.41;96831.94;6162737;23;20022;-79
2022/09/23 05:16:30;;;;;;;7.40;5.13;;;;;;;8.88;62.24;96831.94;6170948;23;20081;-79
2022/09/23 05:18:58;;;;;;;5.60;5.10;;;;;;;8.88;62.11;96831.94;6159719;23;20044;-79
2022/09/23 05:21:27;;;;;;;6.22;4.75;;;;;;;8.85;62.35;96829.66;6155002;23;20327;-79
2022/09/23 05:23:59;;;;;;;6.80;4.82;;;;;;;8.84;62.55;96831.44;6156456;23;20028;-79
2022/09/23 05:26:29;;;;;;;6.57;4.57;;;;;;;8.85;62.25;96837.47;6156654;23;20028;-78
2022/09/23 05:28:58;;;;;;;7.13;5.50;;;;;;;8.85;62.51;96832.25;6156703;23;20024;-79
2022/09/23 05:31:28;;;;;;;5.28;4.78;;;;;;;8.86;62.42;96824.28;6155253;23;20025;-79
2022/09/23 05:33:57;;;;;;;5.35;4.85;;;;;;;8.89;62.46;96827.53;6156855;23;20021;-79
2022/09/23 05:36:26;;;;;;;8.40;5.63;;;;;;;8.91;62.45;96831.59;6156286;23;20061;-79
2022/09/23 05:38:55;;;;;;;7.13;5.15;;;;;;;8.91;62.28;96823.78;6156194;23;20027;-79
2022/09/23 05:41:24;;;;;;;5.60;4.97;;;;;;;8.91;62.18;96828.19;6154928;23;20457;-79
2022/09/23 05:43:52;;;;;;;5.97;5.35;;;;;;;8.90;62.49;96827.38;6155782;23;20028;-79
2022/09/23 05:46:22;;;;;;;5.38;4.88;;;;;;;8.91;62.36;96828.19;6155949;23;20024;-78
2022/09/23 05:48:50;;;;;;;6.55;5.22;;;;;;;8.92;62.45;96824.59;6155518;23;20052;-79
2022/09/23 05:51:19;;;;;;;5.85;5.15;;;;;;;8.95;62.59;96832.91;6155239;23;20022;-79
2022/09/23 05:53:48;;;;;;;5.35;4.88;;;;;;;8.96;62.33;96834.50;6155949;23;20033;-78
2022/09/23 05:56:18;;;;;;;6.53;5.53;;;;;;;8.98;62.50;96826.53;6155650;23;20017;-79
2022/09/23 05:58:48;;;;;;;6.80;5.78;;;;;;;8.97;62.37;96836.16;6155963;23;20382;-79
2022/09/23 06:01:19;;;;;;;6.55;5.35;;;;;;;8.98;62.84;96831.75;6155106;23;20353;-79
2022/09/23 06:03:48;;;;;;;8.02;5.53;;;;;;;9.00;62.72;96833.19;6155992;23;20026;-79
2022/09/23 06:06:18;;;;;;;5.70;5.10;;;;;;;9.03;62.82;96835.50;6155841;23;20060;-79
2022/09/23 06:08:46;;;;;;;5.28;4.78;;;;;;;9.08;62.72;96832.38;6155268;23;20017;-79
2022/09/23 06:11:14;;;;;;;6.35;5.47;;;;;;;9.14;62.83;96836.09;6155432;23;20022;-78
2022/09/23 06:13:42;;;;;;;5.82;5.22;;;;;;;9.20;62.39;96828.44;6156157;23;20021;-79
2022/09/23 06:16:12;;;;;;;5.68;5.18;;;;;;;9.27;62.59;96832.00;6156113;23;20021;-79
2022/09/23 06:18:41;;;;;;;7.75;5.32;;;;;;;9.34;62.41;96841.75;6155814;23;20092;-79
2022/09/23 06:21:12;;;;;;;6.55;5.85;;;;;;;9.41;62.42;96830.47;6155178;23;20097;-79
2022/09/23 06:23:40;;;;;;;8.13;5.60;;;;;;;9.51;62.41;96837.28;6156279;23;20039;-79
2022/09/23 06:26:10;;;;;;;6.75;6.03;;;;;;;9.61;62.06;96832.69;6155908;23;20018;-79
2022/09/23 06:28:39;;;;;;;6.18;5.60;;;;;;;9.70;62.06;96832.47;6155706;23;20104;-79
2022/09/23 06:31:10;;;;;;;7.00;5.93;;;;;;;9.81;61.85;96827.88;6155177;23;20024;-79
2022/09/23 06:33:40;;;;;;;8.23;5.80;;;;;;;9.94;61.53;96832.53;6155942;23;20524;-79
2022/09/23 06:36:10;;;;;;;7.38;5.60;;;;;;;10.06;61.25;96828.56;6155439;23;20022;-79
2022/09/23 06:38:39;;;;;;;6.57;5.97;;;;;;;10.21;61.00;96826.00;6155882;23;20022;-78
2022/09/23 06:41:07;;;;;;;6.75;6.07;;;;;;;10.34;60.58;96830.66;6154756;23;20028;-78
2022/09/23 06:43:34;;;;;;;6.40;5.65;;;;;;;10.48;60.63;96824.69;6155042;23;20550;-79
2022/09/23 06:46:06;;;;;;;6.40;5.80;;;;;;;10.65;60.22;96826.19;6155070;23;20499;-78
2022/09/23 06:48:35;;;;;;;6.75;5.88;;;;;;;10.82;59.62;96828.63;6155004;23;20017;-79
2022/09/23 06:51:06;;;;;;;6.47;5.88;;;;;;;10.96;59.44;96832.28;6155309;23;20104;-78
2022/09/23 06:53:35;;;;;;;7.00;5.72;;;;;;;11.06;59.29;96824.97;6155014;23;20470;-79
2022/09/23 06:56:06;;;;;;;7.10;6.40;;;;;;;11.19;59.33;96827.75;6155124;23;20357;-78
2022/09/23 06:58:35;;;;;;;6.95;5.95;;;;;;;11.35;58.94;96832.03;6154821;23;20021;-79
2022/09/23 07:01:05;;;;;;;7.78;6.38;;;;;;;11.52;58.50;96827.38;6154352;23;20027;-79
2022/09/23 07:03:34;;;;;;;6.30;5.70;;;;;;;11.69;57.88;96839.25;6154892;23;20365;-79
2022/09/23 07:06:02;;;;;;;7.75;6.13;;;;;;;11.85;57.69;96833.03;6155128;23;20217;-79
2022/09/23 07:08:32;;;;;;;7.05;6.10;;;;;;;12.02;57.01;96830.22;6155078;23;20100;-79
2022/09/23 07:11:04;;;;;;;5.97;5.00;;;;;;;12.19;56.87;96834.22;6154246;23;20021;-79
2022/09/23 07:13:33;;;;;;;7.35;6.18;;;;;;;12.38;56.39;96834.63;6155691;23;20021;-78
2022/09/23 07:16:01;;;;;;;6.43;5.70;;;;;;;12.55;56.06;96830.72;6155454;23;20026;-79
2022/09/23 07:18:32;;;;;;;6.20;5.25;;;;;;;12.75;55.73;96830.91;6155089;23;20053;-79
2022/09/23 07:21:08;;;;;;;9.98;6.03;;;;;;;12.96;55.07;96828.22;6154399;23;20039;-78
2022/09/23 07:23:36;;;;;;;;;;;;;;;13.17;54.74;96826.56;6155587;23;20096;-78
2022/09/23 07:26:07;;;;;;;6.43;5.25;;;;;;;13.37;54.09;96826.69;6154962;23;19927;-79
2022/09/23 07:28:35;;;;;;;6.35;4.95;;;;;;;13.50;53.96;96826.75;6155080;23;20036;-78
2022/09/23 07:31:05;;;;;;;8.25;4.65;;;;;;;13.63;53.60;96833.88;6154270;23;20032;-79
2022/09/23 07:33:34;;;;;;;5.32;4.53;;;;;;;13.80;54.19;96826.50;6154994;23;20088;-79
2022/09/23 07:36:07;;;;;;;5.47;4.53;;;;;;;14.07;52.79;96826.56;6155008;23;20025;-79
2022/09/23 07:38:34;;;;;;;;;;;;;;;14.37;53.21;96830.47;6155132;23;20556;-79
2022/09/23 07:41:03;;;;;;;7.03;4.78;;;;;;;14.73;51.50;96826.66;6153641;23;19920;-79
2022/09/23 07:43:32;;;;;;;5.00;3.97;;;;;;;15.11;50.93;96831.31;6155206;23;20028;-79
2022/09/23 07:46:02;;;;;;;4.80;4.38;;;;;;;15.54;50.86;96827.34;6154899;23;20105;-79
2022/09/23 07:48:36;;;;;;;5.60;4.40;;;;;;;15.98;48.84;96834.50;6159262;23;19997;-82
2022/09/23 07:51:30;;;;;;;6.38;4.38;;;;;;;16.60;47.61;96833.91;6184040;23;20053;-83
2022/09/23 07:54:17;;;;;;;5.97;4.25;;;;;;;17.20;46.45;96836.06;6184139;23;20017;-83
2022/09/23 07:56:58;;;;;;;4.43;4.03;;;;;;;17.89;45.17;96836.75;6184340;23;20006;-82
2022/09/23 07:59:35;;;;;;;6.82;4.28;;;;;;;18.50;43.58;96834.91;6184110;23;20014;-82
2022/09/23 08:02:07;;;;;;;4.63;3.08;;;;;;;19.04;42.87;96830.41;6183968;23;20021;-82
2022/09/23 08:04:38;;;;;;;5.53;4.07;;;;;;;19.57;41.62;96839.22;6184049;23;20013;-82
2022/09/23 08:07:10;;;;;;;;;;;;;;;20.01;40.06;96833.50;6184252;23;20005;-81
2022/09/23 08:09:44;;;;;;;3.92;3.35;;;;;;;20.30;39.43;96832.44;6183910;23;19923;-83
2022/09/23 08:12:18;;;;;;;5.40;3.90;;;;;;;20.58;38.39;96836.94;6159114;23;20053;-82
2022/09/23 08:14:50;;;;;;;4.38;3.63;;;;;;;20.86;37.52;96835.28;6183951;23;20061;-82
2022/09/23 08:17:23;;;;;;;4.68;3.90;;;;;;;21.22;37.33;96824.38;6183997;23;20012;-82
2022/09/23 08:19:52;;;;;;;5.53;3.15;;;;;;;21.65;36.46;96834.28;6183868;23;20029;-82
2022/09/23 08:22:20;;;;;;;8.35;4.07;;;;;;;21.98;35.78;96829.88;6183741;23;20025;-82
2022/09/23 08:24:51;;;;;;;9.65;3.85;;;;;;;22.37;35.21;96833.22;6183702;23;20028;-82
2022/09/23 08:27:23;;;;;;;4.10;2.80;;;;;;;22.74;34.26;96826.34;6183601;23;20005;-82
2022/09/23 08:29:53;;;;;;;2.97;2.65;;;;;;;23.08;33.71;96828.78;6183674;23;20010;-82
2022/09/23 08:32:22;;;;;;;4.32;2.25;;;;;;;23.34;33.07;96825.19;6183632;23;20025;-83
2022/09/23 08:34:50;;;;;;;3.17;2.75;;;;;;;23.60;32.73;96822.69;6183672;23;20016;-82
2022/09/23 08:37:18;;;;;;;4.18;2.65;;;;;;;23.90;32.13;96821.19;6183796;23;20017;-82
2022/09/23 08:42:42;;;;;;;1.85;1.70;;;;;;;24.30;30.29;96825.84;6178983;23;20040;-79
2022/09/23 08:45:23;;;;;;;2.80;1.80;;;;;;;24.43;29.75;96829.88;6158809;23;20002;-79
2022/09/23 08:48:16;;;;;;;2.10;1.80;;;;;;;24.53;29.98;96827.22;6182804;23;20053;-80
2022/09/23 08:50:53;;;;;;;2.03;1.75;;;;;;;24.64;30.01;96820.84;6183277;23;20017;-80
2022/09/23 08:53:37;;;;;;;4.22;1.83;;;;;;;24.77;29.62;96829.38;6159282;23;20006;-79
2022/09/23 08:56:20;;;;;;;1.98;1.60;;;;;;;24.92;28.91;96823.25;6182973;23;20005;-79
2022/09/23 08:59:08;;;;;;;2.15;1.63;;;;;;;25.04;29.54;96823.78;6183203;23;20024;-80
2022/09/23 09:01:54;;;;;;;2.88;1.90;;;;;;;25.20;29.19;96832.56;6182753;23;20006;-80
2022/09/23 09:04:31;;;;;;;2.00;1.80;;;;;;;25.45;29.24;96829.84;6182559;23;20026;-79
2022/09/23 09:07:28;;;;;;;2.17;1.98;;;;;;;25.69;28.50;96827.38;6183499;23;20024;-80
2022/09/23 09:10:30;;;;;;;1.85;1.65;;;;;;;25.90;28.62;96821.97;6159007;23;20013;-79
2022/09/23 11:59:15;;;;;;;2.45;1.20;;;;;;;37.49;15.66;96676.09;6162702;23;20029;-82
2022/09/23 12:01:47;;;;;;;1.35;1.08;;;;;;;38.06;15.62;96671.09;6183055;23;20032;-82
2022/09/23 13:19:39;;;;;;;3.05;1.80;;;;;;;24.24;31.31;96598.47;6223809;23;20025;-79
2022/09/23 13:23:11;;;;;;;2.60;1.45;;;;;;;24.15;31.16;96602.75;6174147;23;20001;-81
2022/09/23 13:29:33;;;;;;;1.98;1.42;;;;;;;23.83;31.43;96603.84;6166901;23;20053;-81
2022/09/23 13:32:46;;;;;;;1.58;1.48;;;;;;;23.70;31.83;96588.34;6173587;23;20048;-79
2022/09/23 13:44:27;;;;;;;1.90;1.35;;;;;;;23.25;33.29;96581.91;6198518;23;20005;-78
2022/09/23 13:47:15;;;;;;;2.15;1.80;;;;;;;23.16;33.35;96583.50;6212592;23;20021;-80
2022/09/23 13:49:57;;;;;;;3.35;2.15;;;;;;;23.12;33.09;96587.75;6173358;22;20372;-77
2022/09/23 13:52:29;;;;;;;4.28;2.00;;;;;;;23.09;34.00;96589.06;6156707;23;20403;-77
2022/09/23 13:54:57;;;;;;;3.58;1.83;;;;;;;23.07;33.68;96579.72;6157789;23;20488;-77
2022/09/23 13:57:26;;;;;;;1.80;1.55;;;;;;;23.01;33.83;96577.06;6157556;23;20018;-77
2022/09/23 13:59:53;;;;;;;2.47;2.00;;;;;;;22.97;34.17;96575.94;6157367;23;20026;-77
2022/09/23 14:02:24;;;;;;;3.22;2.28;;;;;;;22.91;33.98;96574.31;6157422;23;20105;-77
2022/09/23 14:04:52;;;;;;;3.95;2.55;;;;;;;22.83;34.18;96575.66;6157902;23;20487;-80
2022/09/23 14:07:19;;;;;;;44.97;27.85;;;;;;;22.78;34.28;96572.16;6156909;23;20122;-77
2022/09/23 14:09:51;;;;;;;31.15;15.80;;;;;;;22.70;34.57;96567.34;6157061;23;20026;-77
2022/09/23 14:12:21;;;;;;;4.63;2.85;;;;;;;22.67;34.50;96567.88;6156095;23;20104;-77
2022/09/23 14:14:50;;;;;;;1.83;1.73;;;;;;;22.62;35.18;96566.78;6175916;23;20031;-77
2022/09/23 14:17:22;;;;;;;4.78;2.20;;;;;;;22.55;34.71;96574.19;6176131;23;20025;-77
2022/09/23 14:19:50;;;;;;;5.13;2.53;;;;;;;22.44;34.63;96564.56;6164068;23;20473;-77
2022/09/23 14:22:23;;;;;;;5.43;2.47;;;;;;;22.35;35.17;96560.81;6157605;23;20044;-77
2022/09/23 14:24:53;;;;;;;2.78;1.60;;;;;;;22.29;35.17;96552.00;6157549;23;20053;-77
2022/09/23 14:27:27;;;;;;;2.22;1.75;;;;;;;22.21;35.09;96563.09;6156997;23;20052;-77
2022/09/23 14:29:55;;;;;;;3.17;1.98;;;;;;;22.13;35.48;96561.72;6156605;23;20052;-77
2022/09/23 14:32:27;;;;;;;2.67;1.83;;;;;;;22.05;35.51;96558.75;6155400;23;20018;-78
2022/09/23 14:35:08;;;;;;;3.35;2.25;;;;;;;21.98;35.70;96565.06;6156400;23;20029;-78
2022/09/23 14:40:30;;;;;;;1.65;1.55;;;;;;;21.82;36.41;96555.38;6155323;23;20033;-78
2022/09/23 14:43:01;;;;;;;4.35;1.70;;;;;;;21.74;36.30;96564.63;6155817;23;20053;-78
2022/09/23 14:45:33;;;;;;;4.10;1.67;;;;;;;21.68;36.38;96555.03;6155671;23;20104;-78
2022/09/23 14:48:05;;;;;;;2.10;1.90;;;;;;;21.60;36.73;96547.50;6156087;23;20018;-78
2022/09/23 14:50:38;;;;;;;2.28;2.00;;;;;;;21.48;36.65;96536.28;6154574;23;20025;-78
2022/09/23 14:53:32;;;;;;;2.70;1.80;;;;;;;21.39;37.18;96542.00;6155784;23;20374;-78
2022/09/23 14:56:15;;;;;;;3.20;1.73;;;;;;;21.34;37.42;96538.50;6155809;23;20030;-78
2022/09/23 14:58:47;;;;;;;5.45;1.83;;;;;;;21.23;37.47;96537.63;6155673;23;20022;-77
2022/09/23 15:01:26;;;;;;;3.05;2.15;;;;;;;21.18;37.63;96540.22;6158748;23;20025;-78
2022/09/23 15:03:56;;;;;;;3.05;2.33;;;;;;;21.13;37.65;96540.19;6161905;23;20049;-78
2022/09/23 15:06:24;;;;;;;2.20;1.90;;;;;;;21.07;37.88;96538.53;6159435;23;20021;-77
2022/09/23 15:08:54;;;;;;;1.75;1.45;;;;;;;21.02;38.47;96538.47;6155532;23;20029;-78
2022/09/23 15:11:24;;;;;;;2.08;1.92;;;;;;;20.97;38.53;96537.38;6154585;23;20564;-78
2022/09/23 15:13:52;;;;;;;1.63;1.52;;;;;;;20.92;38.73;96537.31;6155069;23;20461;-78
2022/09/23 15:16:25;;;;;;;1.60;1.50;;;;;;;20.88;39.59;96538.88;6155558;23;20096;-78
2022/09/23 15:18:56;;;;;;;2.20;1.30;;;;;;;20.86;39.26;96535.66;6154844;23;20022;-78
2022/09/23 15:21:25;;;;;;;2.05;1.60;;;;;;;20.83;39.28;96533.50;6154365;23;20049;-78
2022/09/23 15:23:54;;;;;;;2.20;1.98;;;;;;;20.77;38.97;96527.34;6155442;23;20104;-77
2022/09/23 15:26:25;;;;;;;2.65;1.70;;;;;;;20.72;39.08;96531.78;6155074;23;20092;-78
2022/09/23 15:28:57;;;;;;;1.88;1.70;;;;;;;20.66;39.62;96530.13;6154812;23;20338;-78
2022/09/23 15:31:25;;;;;;;3.17;2.10;;;;;;;20.58;39.30;96524.22;6153832;23;20018;-78
2022/09/23 15:33:54;;;;;;;3.75;1.77;;;;;;;20.52;39.40;96517.22;6155233;23;20061;-78
2022/09/23 15:36:24;;;;;;;3.78;1.77;;;;;;;20.49;39.65;96517.72;6155190;23;20029;-78
2022/09/23 15:38:52;;;;;;;3.35;2.13;;;;;;;20.48;39.74;96521.41;6154912;23;20022;-78
2022/09/23 15:41:22;;;;;;;3.28;2.40;;;;;;;20.47;39.59;96519.03;6154240;23;20027;-78
2022/09/23 15:43:51;;;;;;;1.70;1.60;;;;;;;20.44;39.61;96519.50;6155095;23;20063;-78
2022/09/23 15:46:21;;;;;;;1.70;1.60;;;;;;;20.41;39.49;96526.09;6155136;23;20057;-77
2022/09/23 15:48:55;;;;;;;3.85;1.70;;;;;;;20.38;39.50;96524.75;6154513;23;20469;-78
2022/09/23 15:51:31;;;;;;;1.98;1.60;;;;;;;20.34;39.91;96518.34;6153988;23;20022;-78
2022/09/23 15:53:58;;;;;;;1.90;1.70;;;;;;;20.29;39.55;96517.44;6154784;23;20021;-78
2022/09/23 15:56:26;;;;;;;1.60;1.50;;;;;;;20.25;39.21;96516.38;6155155;23;20021;-78
2022/09/23 15:58:55;;;;;;;1.77;1.67;;;;;;;20.20;39.48;96518.94;6154570;23;20040;-77
2022/09/23 16:01:28;;;;;;;3.53;1.90;;;;;;;20.14;39.59;96508.28;6154060;23;20354;-78
2022/09/23 16:03:56;;;;;;;2.22;1.40;;;;;;;20.09;40.04;96504.75;6154911;23;20030;-78
2022/09/23 16:06:24;;;;;;;1.60;1.50;;;;;;;20.05;40.32;96503.63;6159290;23;20044;-78
2022/09/23 16:08:52;;;;;;;4.97;2.10;;;;;;;19.98;40.20;96503.81;6171021;23;20045;-78
2022/09/23 16:11:22;;;;;;;4.38;2.03;;;;;;;19.91;40.36;96496.03;6164052;23;20021;-78
2022/09/23 16:13:50;;;;;;;2.08;1.88;;;;;;;19.85;40.60;96486.41;6156123;23;20044;-78
2022/09/23 16:16:19;;;;;;;2.28;2.08;;;;;;;19.79;40.85;96497.19;6155120;23;20022;-78
2022/09/23 16:18:49;;;;;;;2.33;1.63;;;;;;;19.71;40.90;96495.75;6155167;23;20354;-78
2022/09/23 16:21:19;;;;;;;2.60;1.90;;;;;;;19.67;41.11;96497.25;6153785;23;20017;-78
2022/09/23 16:23:48;;;;;;;3.65;2.20;;;;;;;19.61;41.40;96491.06;6154732;23;20453;-78